createdAt,value
2017-11-25T21:37:43.051Z,70.20
2017-11-25T21:40:10.037Z,70.20
2017-11-25T21:42:37.042Z,70.10
2017-11-25T21:45:04.028Z,70.10
2017-11-25T21:47:31.023Z,70.20
2017-11-25T21:49:58.001Z,70.20
2017-11-25T21:52:24.963Z,70.20
2017-11-25T21:54:51.948Z,70.30
2017-11-25T21:57:19.302Z,70.30
2017-11-25T21:59:46.268Z,70.30
2017-11-25T22:02:13.321Z,70.20
2017-11-25T22:04:40.328Z,70.30
2017-11-25T22:07:07.681Z,70.40
2017-11-25T22:09:34.661Z,70.40
2017-11-25T22:12:01.640Z,70.40
2017-11-25T22:14:28.626Z,70.50
2017-11-25T22:16:56.006Z,70.60
2017-11-25T22:19:22.984Z,70.70
2017-11-25T22:21:49.938Z,70.80
2017-11-25T22:24:16.921Z,70.80
2017-11-25T22:26:44.493Z,70.90
2017-11-25T22:29:11.456Z,71.00
2017-11-25T22:31:38.805Z,71.00
2017-11-25T22:34:05.790Z,71.10
2017-11-25T22:36:33.018Z,71.20
2017-11-25T22:38:59.982Z,71.20
2017-11-25T22:41:27.346Z,71.30
2017-11-25T22:43:54.308Z,71.40
2017-11-25T22:46:21.285Z,71.50
2017-11-25T22:48:48.700Z,71.60
2017-11-25T22:51:15.679Z,71.60
2017-11-25T22:53:42.649Z,71.80
2017-11-25T22:56:10.011Z,71.80
2017-11-25T22:58:37.163Z,71.80
2017-11-25T23:01:04.619Z,71.80
2017-11-25T23:03:31.589Z,71.80
2017-11-25T23:06:04.221Z,71.80
2017-11-25T23:08:31.191Z,71.60
2017-11-25T23:10:58.147Z,71.50
2017-11-25T23:13:25.102Z,71.50
2017-11-25T23:15:52.094Z,71.50
2017-11-25T23:18:19.060Z,71.50
2017-11-25T23:20:46.422Z,71.40
2017-11-25T23:23:13.800Z,71.30
2017-11-25T23:25:41.034Z,71.40
2017-11-25T23:28:08.051Z,71.40
2017-11-25T23:30:35.013Z,71.40
2017-11-25T23:33:01.997Z,71.40
2017-11-25T23:35:29.638Z,71.40
2017-11-25T23:37:56.636Z,71.40
2017-11-25T23:40:23.985Z,71.40
2017-11-25T23:42:51.089Z,71.40
2017-11-25T23:45:18.453Z,71.40
2017-11-25T23:47:45.455Z,71.40
2017-11-25T23:50:12.435Z,71.30
2017-11-25T23:52:39.417Z,71.30
2017-11-25T23:55:06.378Z,71.40
2017-11-25T23:57:33.350Z,71.50
